sensor_id;sensor_type;location;lat;lon;timestamp;pressure;altitude;pressure_sealevel;temperature;humidity
61357;BME280;47227;46.752;23.576;2023-01-01T00:01:21;97569.09;;;6.54;89.77
61357;BME280;47227;46.752;23.576;2023-01-01T00:03:49;97567.20;;;6.59;89.68
61357;BME280;47227;46.752;23.576;2023-01-01T00:06:16;97565.16;;;6.66;89.70
61357;BME280;47227;46.752;23.576;2023-01-01T00:08:43;97566.79;;;6.74;89.82
61357;BME280;47227;46.752;23.576;2023-01-01T00:11:10;97569.77;;;6.78;89.36
61357;BME280;47227;46.752;23.576;2023-01-01T00:13:39;97575.96;;;6.78;89.35
61357;BME280;47227;46.752;23.576;2023-01-01T00:16:09;97582.73;;;6.78;89.49
61357;BME280;47227;46.752;23.576;2023-01-01T00:18:37;97580.80;;;6.80;89.38
61357;BME280;47227;46.752;23.576;2023-01-01T00:21:05;97590.98;;;6.79;89.55
61357;BME280;47227;46.752;23.576;2023-01-01T00:23:33;97590.73;;;6.74;89.12
61357;BME280;47227;46.752;23.576;2023-01-01T00:26:00;97587.04;;;6.73;89.20
61357;BME280;47227;46.752;23.576;2023-01-01T00:28:26;97586.94;;;6.72;89.07
61357;BME280;47227;46.752;23.576;2023-01-01T00:30:53;97586.13;;;6.70;88.98
61357;BME280;47227;46.752;23.576;2023-01-01T00:33:20;97584.67;;;6.68;89.26
61357;BME280;47227;46.752;23.576;2023-01-01T00:35:47;97579.64;;;6.65;89.01
61357;BME280;47227;46.752;23.576;2023-01-01T00:38:13;97574.44;;;6.62;88.90
61357;BME280;47227;46.752;23.576;2023-01-01T00:40:40;97572.74;;;6.59;89.59
61357;BME280;47227;46.752;23.576;2023-01-01T00:43:06;97573.80;;;6.56;90.03
61357;BME280;47227;46.752;23.576;2023-01-01T00:45:33;97582.23;;;6.54;90.16
61357;BME280;47227;46.752;23.576;2023-01-01T00:48:00;97589.60;;;6.52;90.20
61357;BME280;47227;46.752;23.576;2023-01-01T00:50:26;97591.03;;;6.49;90.35
61357;BME280;47227;46.752;23.576;2023-01-01T00:52:53;97591.95;;;6.44;90.78
61357;BME280;47227;46.752;23.576;2023-01-01T00:55:19;97602.27;;;6.41;91.76
61357;BME280;47227;46.752;23.576;2023-01-01T00:57:46;97605.90;;;6.39;91.57
61357;BME280;47227;46.752;23.576;2023-01-01T01:00:13;97611.89;;;6.42;91.00
61357;BME280;47227;46.752;23.576;2023-01-01T01:02:40;97614.50;;;6.43;90.72
61357;BME280;47227;46.752;23.576;2023-01-01T01:05:07;97615.34;;;6.46;90.51
61357;BME280;47227;46.752;23.576;2023-01-01T01:07:35;97614.95;;;6.49;90.91
61357;BME280;47227;46.752;23.576;2023-01-01T01:10:02;97604.83;;;6.50;90.36
61357;BME280;47227;46.752;23.576;2023-01-01T01:12:29;97608.98;;;6.52;90.27
61357;BME280;47227;46.752;23.576;2023-01-01T01:14:55;97606.73;;;6.53;90.26
61357;BME280;47227;46.752;23.576;2023-01-01T01:17:22;97607.73;;;6.55;90.21
61357;BME280;47227;46.752;23.576;2023-01-01T01:19:49;97602.89;;;6.59;90.03
61357;BME280;47227;46.752;23.576;2023-01-01T01:22:17;97601.16;;;6.63;90.01
61357;BME280;47227;46.752;23.576;2023-01-01T01:24:52;97598.18;;;6.67;90.09
61357;BME280;47227;46.752;23.576;2023-01-01T01:27:18;97601.90;;;6.76;90.19
61357;BME280;47227;46.752;23.576;2023-01-01T01:29:45;97607.61;;;6.85;90.23
61357;BME280;47227;46.752;23.576;2023-01-01T01:32:11;97595.80;;;6.88;90.02
61357;BME280;47227;46.752;23.576;2023-01-01T01:34:38;97600.38;;;6.82;89.71
61357;BME280;47227;46.752;23.576;2023-01-01T01:37:04;97603.90;;;6.71;89.72
61357;BME280;47227;46.752;23.576;2023-01-01T01:39:31;97598.52;;;6.70;89.53
61357;BME280;47227;46.752;23.576;2023-01-01T01:41:59;97608.98;;;6.63;90.84
61357;BME280;47227;46.752;23.576;2023-01-01T01:44:48;97611.65;;;6.55;90.73
61357;BME280;47227;46.752;23.576;2023-01-01T01:47:24;97609.96;;;6.55;90.18
61357;BME280;47227;46.752;23.576;2023-01-01T01:49:54;97615.03;;;6.47;90.65
61357;BME280;47227;46.752;23.576;2023-01-01T01:52:23;97617.27;;;6.38;91.11
61357;BME280;47227;46.752;23.576;2023-01-01T01:54:50;97614.67;;;6.33;90.77
61357;BME280;47227;46.752;23.576;2023-01-01T01:57:17;97618.76;;;6.28;91.26
61357;BME280;47227;46.752;23.576;2023-01-01T01:59:47;97608.14;;;6.25;90.81
61357;BME280;47227;46.752;23.576;2023-01-01T02:02:31;97611.44;;;6.22;91.04
61357;BME280;47227;46.752;23.576;2023-01-01T02:05:00;97617.86;;;6.18;91.43
61357;BME280;47227;46.752;23.576;2023-01-01T02:07:29;97615.64;;;6.12;91.86
61357;BME280;47227;46.752;23.576;2023-01-01T02:09:56;97610.56;;;6.05;91.33
61357;BME280;47227;46.752;23.576;2023-01-01T02:12:25;97614.59;;;6.01;91.06
61357;BME280;47227;46.752;23.576;2023-01-01T02:14:52;97610.79;;;5.96;90.83
61357;BME280;47227;46.752;23.576;2023-01-01T02:17:26;97610.38;;;5.94;90.89
61357;BME280;47227;46.752;23.576;2023-01-01T02:20:16;97609.12;;;5.93;91.43
61357;BME280;47227;46.752;23.576;2023-01-01T02:23:01;97613.29;;;5.93;91.37
61357;BME280;47227;46.752;23.576;2023-01-01T02:25:51;97607.17;;;5.91;92.93
61357;BME280;47227;46.752;23.576;2023-01-01T02:28:43;97603.28;;;5.91;94.17
61357;BME280;47227;46.752;23.576;2023-01-01T02:31:23;97605.20;;;5.95;92.79
61357;BME280;47227;46.752;23.576;2023-01-01T02:33:55;97599.27;;;6.01;92.51
61357;BME280;47227;46.752;23.576;2023-01-01T02:36:25;97601.13;;;6.04;93.59
61357;BME280;47227;46.752;23.576;2023-01-01T02:38:57;97599.89;;;6.08;92.98
61357;BME280;47227;46.752;23.576;2023-01-01T02:41:29;97599.84;;;6.17;93.01
61357;BME280;47227;46.752;23.576;2023-01-01T02:43:56;97598.86;;;6.19;93.22
61357;BME280;47227;46.752;23.576;2023-01-01T02:46:22;97596.28;;;6.26;92.86
61357;BME280;47227;46.752;23.576;2023-01-01T02:48:50;97590.84;;;6.31;92.59
61357;BME280;47227;46.752;23.576;2023-01-01T02:51:30;97588.25;;;6.29;92.08
61357;BME280;47227;46.752;23.576;2023-01-01T02:57:14;97588.70;;;6.24;91.59
61357;BME280;47227;46.752;23.576;2023-01-01T03:00:01;97589.95;;;6.21;91.56
61357;BME280;47227;46.752;23.576;2023-01-01T03:03:05;97589.39;;;6.17;91.27
61357;BME280;47227;46.752;23.576;2023-01-01T03:05:42;97592.96;;;6.10;92.17
61357;BME280;47227;46.752;23.576;2023-01-01T03:08:44;97590.55;;;5.96;93.55
61357;BME280;47227;46.752;23.576;2023-01-01T03:11:17;97588.38;;;5.87;94.10
61357;BME280;47227;46.752;23.576;2023-01-01T03:13:59;97590.22;;;5.82;93.56
61357;BME280;47227;46.752;23.576;2023-01-01T03:16:35;97589.30;;;5.79;93.06
61357;BME280;47227;46.752;23.576;2023-01-01T03:19:11;97592.41;;;5.74;94.65
61357;BME280;47227;46.752;23.576;2023-01-01T03:22:00;97596.15;;;5.65;96.39
61357;BME280;47227;46.752;23.576;2023-01-01T03:24:34;97598.59;;;5.57;97.36
61357;BME280;47227;46.752;23.576;2023-01-01T03:27:07;97603.84;;;5.55;96.42
61357;BME280;47227;46.752;23.576;2023-01-01T03:29:39;97602.33;;;5.52;95.92
61357;BME280;47227;46.752;23.576;2023-01-01T03:32:10;97602.34;;;5.52;95.33
61357;BME280;47227;46.752;23.576;2023-01-01T03:34:43;97604.90;;;5.52;94.85
61357;BME280;47227;46.752;23.576;2023-01-01T03:37:18;97610.73;;;5.54;94.91
61357;BME280;47227;46.752;23.576;2023-01-01T03:39:50;97609.20;;;5.57;94.24
61357;BME280;47227;46.752;23.576;2023-01-01T03:42:34;97608.78;;;5.59;94.00
61357;BME280;47227;46.752;23.576;2023-01-01T03:45:07;97611.02;;;5.62;93.80
61357;BME280;47227;46.752;23.576;2023-01-01T03:47:36;97607.17;;;5.66;93.72
61357;BME280;47227;46.752;23.576;2023-01-01T03:50:03;97609.98;;;5.70;93.71
61357;BME280;47227;46.752;23.576;2023-01-01T03:52:43;97610.39;;;5.73;93.67
61357;BME280;47227;46.752;23.576;2023-01-01T03:55:28;97617.25;;;5.78;93.71
61357;BME280;47227;46.752;23.576;2023-01-01T03:58:10;97616.55;;;5.84;93.49
61357;BME280;47227;46.752;23.576;2023-01-01T04:00:46;97612.64;;;5.92;93.87
61357;BME280;47227;46.752;23.576;2023-01-01T04:03:19;97618.61;;;6.01;94.11
61357;BME280;47227;46.752;23.576;2023-01-01T04:05:47;97614.65;;;6.06;93.99
61357;BME280;47227;46.752;23.576;2023-01-01T04:08:15;97618.40;;;6.13;93.77
61357;BME280;47227;46.752;23.576;2023-01-01T04:10:44;97622.98;;;6.15;93.69
61357;BME280;47227;46.752;23.576;2023-01-01T04:13:12;97626.73;;;6.16;93.59
61357;BME280;47227;46.752;23.576;2023-01-01T04:15:39;97626.21;;;6.16;93.57
61357;BME280;47227;46.752;23.576;2023-01-01T04:18:05;97623.85;;;6.13;93.12
61357;BME280;47227;46.752;23.576;2023-01-01T04:20:32;97622.98;;;6.11;92.94
61357;BME280;47227;46.752;23.576;2023-01-01T04:22:59;97624.20;;;6.08;92.82
61357;BME280;47227;46.752;23.576;2023-01-01T04:25:27;97620.34;;;6.02;92.83
61357;BME280;47227;46.752;23.576;2023-01-01T04:27:56;97619.30;;;5.96;92.23
61357;BME280;47227;46.752;23.576;2023-01-01T04:30:24;97614.92;;;5.89;92.54
61357;BME280;47227;46.752;23.576;2023-01-01T04:32:50;97616.69;;;5.82;92.19
61357;BME280;47227;46.752;23.576;2023-01-01T04:35:17;97615.60;;;5.75;92.20
61357;BME280;47227;46.752;23.576;2023-01-01T04:37:44;97611.45;;;5.69;92.41
61357;BME280;47227;46.752;23.576;2023-01-01T04:40:12;97614.10;;;5.66;92.21
61357;BME280;47227;46.752;23.576;2023-01-01T04:42:39;97614.27;;;5.62;92.16
61357;BME280;47227;46.752;23.576;2023-01-01T04:45:06;97620.28;;;5.60;92.17
61357;BME280;47227;46.752;23.576;2023-01-01T04:47:33;97626.09;;;5.58;92.59
61357;BME280;47227;46.752;23.576;2023-01-01T04:50:00;97628.55;;;5.55;92.33
61357;BME280;47227;46.752;23.576;2023-01-01T04:52:26;97625.52;;;5.50;91.93
61357;BME280;47227;46.752;23.576;2023-01-01T04:54:53;97629.51;;;5.45;91.80
61357;BME280;47227;46.752;23.576;2023-01-01T04:57:19;97632.45;;;5.43;91.38
61357;BME280;47227;46.752;23.576;2023-01-01T04:59:46;97631.80;;;5.45;92.06
61357;BME280;47227;46.752;23.576;2023-01-01T05:02:12;97639.58;;;5.48;92.08
61357;BME280;47227;46.752;23.576;2023-01-01T05:04:39;97647.72;;;5.51;92.12
61357;BME280;47227;46.752;23.576;2023-01-01T05:07:06;97652.30;;;5.52;93.18
61357;BME280;47227;46.752;23.576;2023-01-01T05:09:32;97658.16;;;5.51;92.65
61357;BME280;47227;46.752;23.576;2023-01-01T05:11:58;97656.01;;;5.54;92.56
61357;BME280;47227;46.752;23.576;2023-01-01T05:14:25;97653.47;;;5.60;92.85
61357;BME280;47227;46.752;23.576;2023-01-01T05:16:52;97654.47;;;5.66;93.12
61357;BME280;47227;46.752;23.576;2023-01-01T05:19:19;97648.52;;;5.74;93.13
61357;BME280;47227;46.752;23.576;2023-01-01T05:21:45;97650.15;;;5.79;92.97
61357;BME280;47227;46.752;23.576;2023-01-01T05:24:12;97652.86;;;5.78;92.92
61357;BME280;47227;46.752;23.576;2023-01-01T05:26:43;97647.23;;;5.73;92.73
61357;BME280;47227;46.752;23.576;2023-01-01T05:29:11;97651.39;;;5.66;92.50
61357;BME280;47227;46.752;23.576;2023-01-01T05:31:44;97650.63;;;5.56;92.24
61357;BME280;47227;46.752;23.576;2023-01-01T05:34:11;97649.96;;;5.48;92.23
61357;BME280;47227;46.752;23.576;2023-01-01T05:36:38;97655.81;;;5.43;92.27
61357;BME280;47227;46.752;23.576;2023-01-01T05:39:06;97658.24;;;5.38;92.25
61357;BME280;47227;46.752;23.576;2023-01-01T05:41:34;97660.34;;;5.34;92.13
61357;BME280;47227;46.752;23.576;2023-01-01T05:44:04;97663.10;;;5.31;92.12
61357;BME280;47227;46.752;23.576;2023-01-01T05:46:32;97657.99;;;5.26;92.73
61357;BME280;47227;46.752;23.576;2023-01-01T05:48:59;97664.77;;;5.21;92.54
61357;BME280;47227;46.752;23.576;2023-01-01T05:51:27;97664.16;;;5.19;92.37
61357;BME280;47227;46.752;23.576;2023-01-01T05:53:55;97664.73;;;5.15;92.40
61357;BME280;47227;46.752;23.576;2023-01-01T05:56:22;97663.92;;;5.10;92.31
61357;BME280;47227;46.752;23.576;2023-01-01T05:58:49;97661.47;;;5.06;92.25
61357;BME280;47227;46.752;23.576;2023-01-01T06:01:22;97662.52;;;5.03;92.28
61357;BME280;47227;46.752;23.576;2023-01-01T06:03:50;97663.18;;;5.01;92.27
61357;BME280;47227;46.752;23.576;2023-01-01T06:06:20;97668.88;;;4.99;92.24
61357;BME280;47227;46.752;23.576;2023-01-01T06:08:51;97668.65;;;5.00;92.39
61357;BME280;47227;46.752;23.576;2023-01-01T06:11:19;97666.60;;;4.99;92.54
61357;BME280;47227;46.752;23.576;2023-01-01T06:13:46;97664.05;;;5.00;91.95
61357;BME280;47227;46.752;23.576;2023-01-01T06:16:13;97658.37;;;5.03;92.18
61357;BME280;47227;46.752;23.576;2023-01-01T06:18:40;97660.54;;;5.05;92.90
61357;BME280;47227;46.752;23.576;2023-01-01T06:21:10;97665.67;;;5.06;92.26
61357;BME280;47227;46.752;23.576;2023-01-01T06:23:38;97665.88;;;5.10;92.68
61357;BME280;47227;46.752;23.576;2023-01-01T06:26:10;97665.13;;;5.15;92.61
61357;BME280;47227;46.752;23.576;2023-01-01T06:28:38;97667.33;;;5.18;92.89
61357;BME280;47227;46.752;23.576;2023-01-01T06:31:07;97671.57;;;5.24;92.92
61357;BME280;47227;46.752;23.576;2023-01-01T06:33:35;97675.46;;;5.30;93.02
61357;BME280;47227;46.752;23.576;2023-01-01T06:36:04;97677.65;;;5.32;93.01
61357;BME280;47227;46.752;23.576;2023-01-01T06:38:33;97684.86;;;5.36;92.89
61357;BME280;47227;46.752;23.576;2023-01-01T06:41:02;97692.50;;;5.42;93.15
61357;BME280;47227;46.752;23.576;2023-01-01T06:43:33;97697.94;;;5.46;92.89
61357;BME280;47227;46.752;23.576;2023-01-01T06:46:06;97696.23;;;5.47;92.94
61357;BME280;47227;46.752;23.576;2023-01-01T06:48:35;97702.16;;;5.50;92.96
61357;BME280;47227;46.752;23.576;2023-01-01T06:51:07;97702.55;;;5.49;92.65
61357;BME280;47227;46.752;23.576;2023-01-01T06:53:35;97703.33;;;5.46;92.50
61357;BME280;47227;46.752;23.576;2023-01-01T06:56:03;97697.79;;;5.45;92.58
61357;BME280;47227;46.752;23.576;2023-01-01T06:58:31;97697.16;;;5.42;92.47
61357;BME280;47227;46.752;23.576;2023-01-01T07:01:14;97696.59;;;5.44;92.36
61357;BME280;47227;46.752;23.576;2023-01-01T07:03:42;97688.12;;;5.48;92.90
61357;BME280;47227;46.752;23.576;2023-01-01T07:06:10;97684.77;;;5.52;92.70
61357;BME280;47227;46.752;23.576;2023-01-01T07:08:36;97677.19;;;5.54;93.08
61357;BME280;47227;46.752;23.576;2023-01-01T07:11:07;97681.08;;;5.61;93.23
61357;BME280;47227;46.752;23.576;2023-01-01T07:13:34;97682.45;;;5.56;96.18
61357;BME280;47227;46.752;23.576;2023-01-01T07:16:01;97688.02;;;5.59;97.28
61357;BME280;47227;46.752;23.576;2023-01-01T07:18:36;97692.47;;;5.56;97.97
61357;BME280;47227;46.752;23.576;2023-01-01T07:21:06;97691.48;;;5.51;97.05
61357;BME280;47227;46.752;23.576;2023-01-01T07:23:55;97692.84;;;5.60;96.08
61357;BME280;47227;46.752;23.576;2023-01-01T07:26:24;97689.48;;;5.71;95.68
61357;BME280;47227;46.752;23.576;2023-01-01T07:28:52;97694.98;;;5.83;95.32
61357;BME280;47227;46.752;23.576;2023-01-01T07:31:19;97695.85;;;5.95;94.89
61357;BME280;47227;46.752;23.576;2023-01-01T07:33:46;97705.45;;;6.02;93.59
61357;BME280;47227;46.752;23.576;2023-01-01T07:36:12;97700.25;;;5.96;91.61
61357;BME280;47227;46.752;23.576;2023-01-01T07:38:39;97689.19;;;5.98;91.77
61357;BME280;47227;46.752;23.576;2023-01-01T07:41:06;97688.65;;;6.09;92.73
61357;BME280;47227;46.752;23.576;2023-01-01T07:43:33;97676.33;;;6.19;92.81
61357;BME280;47227;46.752;23.576;2023-01-01T07:46:00;97677.52;;;6.29;92.85
61357;BME280;47227;46.752;23.576;2023-01-01T07:48:28;97684.30;;;6.34;92.02
61357;BME280;47227;46.752;23.576;2023-01-01T07:51:00;97692.42;;;6.28;90.50
61357;BME280;47227;46.752;23.576;2023-01-01T07:53:27;97689.54;;;6.13;90.97
61357;BME280;47227;46.752;23.576;2023-01-01T07:55:53;97691.55;;;6.03;92.41
61357;BME280;47227;46.752;23.576;2023-01-01T07:58:20;97694.61;;;5.92;94.05
61357;BME280;47227;46.752;23.576;2023-01-01T08:00:48;97689.89;;;5.81;94.81
61357;BME280;47227;46.752;23.576;2023-01-01T08:03:15;97686.27;;;5.85;94.54
61357;BME280;47227;46.752;23.576;2023-01-01T08:05:42;97685.08;;;5.89;94.09
61357;BME280;47227;46.752;23.576;2023-01-01T08:08:09;97688.38;;;5.93;93.76
61357;BME280;47227;46.752;23.576;2023-01-01T08:10:37;97690.59;;;5.94;93.77
61357;BME280;47227;46.752;23.576;2023-01-01T08:13:05;97691.55;;;5.96;93.46
61357;BME280;47227;46.752;23.576;2023-01-01T08:15:32;97691.70;;;5.96;93.65
61357;BME280;47227;46.752;23.576;2023-01-01T08:18:02;97695.79;;;5.91;93.85
61357;BME280;47227;46.752;23.576;2023-01-01T08:20:30;97692.47;;;5.88;94.07
61357;BME280;47227;46.752;23.576;2023-01-01T08:22:59;97689.10;;;5.91;93.61
61357;BME280;47227;46.752;23.576;2023-01-01T08:25:33;97691.94;;;5.91;93.88
61357;BME280;47227;46.752;23.576;2023-01-01T08:28:00;97693.45;;;5.93;93.82
61357;BME280;47227;46.752;23.576;2023-01-01T08:30:27;97689.55;;;5.97;93.73
61357;BME280;47227;46.752;23.576;2023-01-01T08:32:54;97694.38;;;6.04;93.77
61357;BME280;47227;46.752;23.576;2023-01-01T08:35:21;97693.60;;;6.11;93.67
61357;BME280;47227;46.752;23.576;2023-01-01T08:37:47;97700.02;;;6.18;93.55
61357;BME280;47227;46.752;23.576;2023-01-01T08:40:14;97697.31;;;6.28;93.54
61357;BME280;47227;46.752;23.576;2023-01-01T08:42:40;97696.20;;;6.37;93.42
61357;BME280;47227;46.752;23.576;2023-01-01T08:45:07;97700.83;;;6.46;93.32
61357;BME280;47227;46.752;23.576;2023-01-01T08:47:34;97698.61;;;6.53;92.83
61357;BME280;47227;46.752;23.576;2023-01-01T08:50:01;97703.11;;;6.59;92.22
61357;BME280;47227;46.752;23.576;2023-01-01T08:52:28;97703.59;;;6.57;91.33
61357;BME280;47227;46.752;23.576;2023-01-01T08:54:54;97703.07;;;6.58;91.00
61357;BME280;47227;46.752;23.576;2023-01-01T08:57:21;97703.93;;;6.65;91.21
61357;BME280;47227;46.752;23.576;2023-01-01T08:59:47;97704.71;;;6.72;90.83
61357;BME280;47227;46.752;23.576;2023-01-01T09:02:14;97704.70;;;6.70;89.72
61357;BME280;47227;46.752;23.576;2023-01-01T09:04:41;97707.52;;;6.71;89.47
61357;BME280;47227;46.752;23.576;2023-01-01T09:07:07;97703.69;;;6.64;88.49
61357;BME280;47227;46.752;23.576;2023-01-01T09:09:34;97703.78;;;6.61;88.54
61357;BME280;47227;46.752;23.576;2023-01-01T09:12:02;97709.52;;;6.65;89.06
61357;BME280;47227;46.752;23.576;2023-01-01T09:14:32;97698.53;;;6.66;88.89
61357;BME280;47227;46.752;23.576;2023-01-01T09:16:59;97697.95;;;6.63;88.37
61357;BME280;47227;46.752;23.576;2023-01-01T09:19:26;97699.23;;;6.64;88.37
61357;BME280;47227;46.752;23.576;2023-01-01T09:21:52;97696.34;;;6.67;88.84
61357;BME280;47227;46.752;23.576;2023-01-01T09:24:19;97691.61;;;6.72;88.38
61357;BME280;47227;46.752;23.576;2023-01-01T09:26:46;97690.42;;;6.70;87.46
61357;BME280;47227;46.752;23.576;2023-01-01T09:29:13;97689.27;;;6.76;87.94
61357;BME280;47227;46.752;23.576;2023-01-01T09:31:43;97687.84;;;6.82;87.96
61357;BME280;47227;46.752;23.576;2023-01-01T09:34:10;97686.23;;;6.83;87.56
61357;BME280;47227;46.752;23.576;2023-01-01T09:36:37;97684.02;;;6.90;87.81
61357;BME280;47227;46.752;23.576;2023-01-01T09:39:04;97680.22;;;7.03;88.21
61357;BME280;47227;46.752;23.576;2023-01-01T09:41:50;97677.33;;;7.15;87.79
61357;BME280;47227;46.752;23.576;2023-01-01T09:44:41;97671.71;;;7.33;87.83
61357;BME280;47227;46.752;23.576;2023-01-01T09:47:21;97667.34;;;7.50;87.51
61357;BME280;47227;46.752;23.576;2023-01-01T09:49:49;97663.45;;;7.66;87.10
61357;BME280;47227;46.752;23.576;2023-01-01T09:52:17;97657.04;;;7.83;87.21
61357;BME280;47227;46.752;23.576;2023-01-01T09:54:50;97656.61;;;7.95;85.84
61357;BME280;47227;46.752;23.576;2023-01-01T09:57:23;97658.92;;;8.03;84.68
61357;BME280;47227;46.752;23.576;2023-01-01T09:59:53;97659.57;;;8.05;84.46
61357;BME280;47227;46.752;23.576;2023-01-01T10:02:53;97652.02;;;8.20;84.92
61357;BME280;47227;46.752;23.576;2023-01-01T10:08:38;97651.34;;;8.55;84.53
61357;BME280;47227;46.752;23.576;2023-01-01T10:11:14;97656.10;;;8.71;82.93
61357;BME280;47227;46.752;23.576;2023-01-01T10:13:44;97653.80;;;8.84;82.50
61357;BME280;47227;46.752;23.576;2023-01-01T10:16:22;97653.14;;;9.00;82.41
61357;BME280;47227;46.752;23.576;2023-01-01T10:18:55;97648.35;;;9.12;82.35
61357;BME280;47227;46.752;23.576;2023-01-01T10:21:26;97651.71;;;9.20;81.10
61357;BME280;47227;46.752;23.576;2023-01-01T10:24:00;97651.09;;;9.30;80.98
61357;BME280;47227;46.752;23.576;2023-01-01T10:26:29;97650.58;;;9.36;80.26
61357;BME280;47227;46.752;23.576;2023-01-01T10:29:03;97648.11;;;9.45;80.41
61357;BME280;47227;46.752;23.576;2023-01-01T10:31:34;97644.66;;;9.62;80.13
61357;BME280;47227;46.752;23.576;2023-01-01T10:34:12;97642.27;;;9.78;78.94
61357;BME280;47227;46.752;23.576;2023-01-01T10:36:42;97642.73;;;9.95;78.52
61357;BME280;47227;46.752;23.576;2023-01-01T10:39:13;97639.81;;;10.18;78.31
61357;BME280;47227;46.752;23.576;2023-01-01T10:41:42;97636.51;;;10.38;77.12
61357;BME280;47227;46.752;23.576;2023-01-01T10:44:10;97631.73;;;10.52;75.92
61357;BME280;47227;46.752;23.576;2023-01-01T10:46:42;97633.95;;;10.61;75.71
61357;BME280;47227;46.752;23.576;2023-01-01T10:49:11;97631.17;;;10.71;74.58
61357;BME280;47227;46.752;23.576;2023-01-01T10:51:43;97630.20;;;10.87;74.66
61357;BME280;47227;46.752;23.576;2023-01-01T10:54:33;97628.40;;;10.98;74.17
61357;BME280;47227;46.752;23.576;2023-01-01T10:57:19;97622.72;;;11.17;73.89
61357;BME280;47227;46.752;23.576;2023-01-01T10:59:47;97614.40;;;11.37;72.71
61357;BME280;47227;46.752;23.576;2023-01-01T11:02:23;97613.08;;;11.58;72.39
61357;BME280;47227;46.752;23.576;2023-01-01T11:05:08;97611.46;;;11.88;71.61
61357;BME280;47227;46.752;23.576;2023-01-01T11:07:44;97615.35;;;12.13;70.04
61357;BME280;47227;46.752;23.576;2023-01-01T11:10:19;97616.39;;;12.29;69.27
61357;BME280;47227;46.752;23.576;2023-01-01T11:12:47;97616.05;;;12.25;68.95
61357;BME280;47227;46.752;23.576;2023-01-01T11:15:38;97614.63;;;12.36;69.34
61357;BME280;47227;46.752;23.576;2023-01-01T11:18:14;97610.59;;;12.72;68.45
61357;BME280;47227;46.752;23.576;2023-01-01T11:20:42;97609.25;;;13.06;66.89
61357;BME280;47227;46.752;23.576;2023-01-01T11:23:26;97604.27;;;13.19;65.90
61357;BME280;47227;46.752;23.576;2023-01-01T11:25:59;97604.67;;;13.18;65.90
61357;BME280;47227;46.752;23.576;2023-01-01T11:28:29;97605.58;;;13.28;65.53
61357;BME280;47227;46.752;23.576;2023-01-01T11:31:04;97607.17;;;13.47;64.83
61357;BME280;47227;46.752;23.576;2023-01-01T11:33:34;97601.50;;;13.49;64.50
61357;BME280;47227;46.752;23.576;2023-01-01T11:36:04;97604.44;;;13.48;64.57
61357;BME280;47227;46.752;23.576;2023-01-01T11:38:31;97602.77;;;13.69;64.09
61357;BME280;47227;46.752;23.576;2023-01-01T11:41:03;97602.41;;;14.05;63.21
61357;BME280;47227;46.752;23.576;2023-01-01T11:43:39;97605.38;;;14.21;62.55
61357;BME280;47227;46.752;23.576;2023-01-01T11:46:14;97607.31;;;14.29;62.17
61357;BME280;47227;46.752;23.576;2023-01-01T11:48:43;97602.38;;;14.52;61.46
61357;BME280;47227;46.752;23.576;2023-01-01T11:51:27;97596.94;;;14.86;60.82
61357;BME280;47227;46.752;23.576;2023-01-01T11:54:10;97597.77;;;15.08;59.85
61357;BME280;47227;46.752;23.576;2023-01-01T11:56:39;97601.64;;;15.33;59.27
61357;BME280;47227;46.752;23.576;2023-01-01T11:59:15;97602.20;;;15.59;58.39
61357;BME280;47227;46.752;23.576;2023-01-01T12:01:46;97602.02;;;15.75;57.91
61357;BME280;47227;46.752;23.576;2023-01-01T12:04:21;97597.26;;;15.87;57.29
61357;BME280;47227;46.752;23.576;2023-01-01T12:06:58;97593.09;;;16.06;57.02
61357;BME280;47227;46.752;23.576;2023-01-01T12:09:55;97592.64;;;16.23;56.37
61357;BME280;47227;46.752;23.576;2023-01-01T12:12:28;97591.81;;;16.39;55.68
61357;BME280;47227;46.752;23.576;2023-01-01T12:15:05;97585.53;;;16.74;55.53
61357;BME280;47227;46.752;23.576;2023-01-01T12:17:42;97585.27;;;16.81;54.52
61357;BME280;47227;46.752;23.576;2023-01-01T12:20:27;97584.27;;;16.90;54.34
61357;BME280;47227;46.752;23.576;2023-01-01T12:22:57;97583.50;;;17.19;53.43
61357;BME280;47227;46.752;23.576;2023-01-01T12:25:31;97577.94;;;17.31;53.09
61357;BME280;47227;46.752;23.576;2023-01-01T12:28:24;97577.79;;;17.36;52.74
61357;BME280;47227;46.752;23.576;2023-01-01T12:31:09;97576.85;;;17.50;52.69
61357;BME280;47227;46.752;23.576;2023-01-01T12:33:52;97577.50;;;17.69;52.03
61357;BME280;47227;46.752;23.576;2023-01-01T12:36:56;97575.60;;;17.58;51.94
61357;BME280;47227;46.752;23.576;2023-01-01T12:39:46;97574.54;;;17.53;52.38
61357;BME280;47227;46.752;23.576;2023-01-01T12:42:40;97574.15;;;17.53;52.15
61357;BME280;47227;46.752;23.576;2023-01-01T12:45:38;97572.13;;;17.37;52.56
61357;BME280;47227;46.752;23.576;2023-01-01T12:48:30;97577.13;;;17.40;52.95
61357;BME280;47227;46.752;23.576;2023-01-01T12:54:29;97581.23;;;16.86;53.87
61357;BME280;47227;46.752;23.576;2023-01-01T12:59:54;97584.23;;;16.63;54.75
61357;BME280;47227;46.752;23.576;2023-01-01T13:02:27;97589.83;;;16.56;55.09
61357;BME280;47227;46.752;23.576;2023-01-01T13:05:00;97591.77;;;16.33;55.33
61357;BME280;47227;46.752;23.576;2023-01-01T13:07:38;97589.03;;;16.23;55.79
61357;BME280;47227;46.752;23.576;2023-01-01T13:12:55;97585.20;;;16.46;55.92
61357;BME280;47227;46.752;23.576;2023-01-01T13:15:43;97581.35;;;16.23;55.89
61357;BME280;47227;46.752;23.576;2023-01-01T13:18:19;97585.12;;;15.82;56.89
61357;BME280;47227;46.752;23.576;2023-01-01T13:20:55;97585.02;;;15.52;57.75
61357;BME280;47227;46.752;23.576;2023-01-01T13:23:41;97586.08;;;15.30;58.52
61357;BME280;47227;46.752;23.576;2023-01-01T13:29:28;97596.52;;;14.98;59.60
61357;BME280;47227;46.752;23.576;2023-01-01T13:31:59;97599.84;;;14.72;60.52
61357;BME280;47227;46.752;23.576;2023-01-01T13:34:33;97602.86;;;14.48;61.22
61357;BME280;47227;46.752;23.576;2023-01-01T13:37:24;97608.15;;;14.32;61.79
61357;BME280;47227;46.752;23.576;2023-01-01T13:39:58;97611.01;;;14.08;62.68